createdAt,value
2019-05-11T00:00:44.586Z,51.23
2019-05-11T00:03:11.597Z,54.50
2019-05-11T00:05:39.007Z,56.60
2019-05-11T00:08:06.048Z,55.97
2019-05-11T00:10:33.150Z,51.43
2019-05-11T00:13:00.305Z,53.03
2019-05-11T00:15:27.886Z,54.50
2019-05-11T00:17:54.874Z,56.50
2019-05-11T00:20:22.930Z,50.23
2019-05-11T00:22:49.969Z,57.97
2019-05-11T00:25:17.570Z,58.30
2019-05-11T00:27:44.637Z,53.03
2019-05-11T00:30:13.428Z,56.20
2019-05-11T00:32:40.476Z,56.40
2019-05-11T00:35:08.594Z,54.27
2019-05-11T00:37:35.666Z,56.17
2019-05-11T00:40:14.085Z,53.20
2019-05-11T00:42:32.056Z,53.23
2019-05-11T00:44:59.811Z,52.57
2019-05-11T00:47:26.838Z,47.80
2019-05-11T00:49:53.830Z,53.40
2019-05-11T00:52:21.042Z,53.23
2019-05-11T00:54:48.776Z,58.23
2019-05-11T00:57:18.501Z,54.43
2019-05-11T00:59:45.502Z,55.13
2019-05-11T01:02:12.511Z,59.17
2019-05-11T01:04:39.871Z,50.93
2019-05-11T01:07:06.899Z,56.60
2019-05-11T01:09:34.396Z,47.43
2019-05-11T01:12:01.518Z,52.23
2019-05-11T01:14:28.906Z,65.30
2019-05-11T01:16:55.924Z,59.27
2019-05-11T01:19:22.942Z,59.87
2019-05-11T01:21:50.537Z,55.80
2019-05-11T01:24:19.058Z,48.30
2019-05-11T01:26:46.106Z,53.27
2019-05-11T01:29:13.361Z,58.07
2019-05-11T01:31:40.394Z,54.40
2019-05-11T01:34:08.031Z,56.33
2019-05-11T01:36:35.075Z,66.70
2019-05-11T01:39:02.212Z,57.17
2019-05-11T01:41:29.270Z,64.23
2019-05-11T01:43:57.715Z,57.47
2019-05-11T01:46:24.717Z,59.53
2019-05-11T01:48:51.842Z,62.27
2019-05-11T01:51:19.518Z,50.37
2019-05-11T01:53:48.100Z,52.60
2019-05-11T01:56:15.350Z,54.30
2019-05-11T01:58:42.352Z,56.73
2019-05-11T02:01:09.347Z,61.57
2019-05-11T02:03:36.770Z,60.93
2019-05-11T02:06:04.002Z,58.33
2019-05-11T02:08:31.019Z,59.37
2019-05-11T02:11:13.807Z,55.17
2019-05-11T02:13:26.979Z,57.40
2019-05-11T02:15:54.091Z,65.50
2019-05-11T02:18:21.131Z,57.13
2019-05-11T02:20:48.559Z,63.20
2019-05-11T02:23:15.827Z,54.40
2019-05-11T02:25:42.831Z,57.00
2019-05-11T02:28:09.939Z,67.23
2019-05-11T02:30:36.984Z,67.93
2019-05-11T02:33:03.983Z,67.13
2019-05-11T02:35:31.197Z,72.40
2019-05-11T02:37:58.539Z,75.80
2019-05-11T02:40:25.795Z,65.67
2019-05-11T02:42:52.787Z,74.47
2019-05-11T02:45:37.729Z,78.37
2019-05-11T02:48:04.751Z,71.63
2019-05-11T02:50:32.881Z,75.43
2019-05-11T02:53:01.088Z,74.50
2019-05-11T02:55:28.763Z,74.27
2019-05-11T02:57:55.773Z,73.63
2019-05-11T03:00:34.274Z,75.57
2019-05-11T03:03:01.275Z,78.60
2019-05-11T03:05:28.263Z,72.50
2019-05-11T03:07:55.267Z,73.00
2019-05-11T03:10:22.607Z,68.80
2019-05-11T03:12:49.588Z,66.60
2019-05-11T03:15:16.970Z,65.67
2019-05-11T03:17:43.980Z,61.77
2019-05-11T03:20:11.583Z,68.83
2019-05-11T03:22:38.558Z,76.90
2019-05-11T03:25:07.049Z,78.77
2019-05-11T03:27:34.130Z,76.63
2019-05-11T03:30:02.232Z,71.77
2019-05-11T03:32:29.511Z,67.73
2019-05-11T03:34:56.501Z,65.80
2019-05-11T03:37:26.921Z,66.10
2019-05-11T03:39:54.176Z,71.80
2019-05-11T03:42:21.416Z,64.93
2019-05-11T03:44:48.466Z,71.03
2019-05-11T03:47:15.833Z,77.67
2019-05-11T03:49:42.845Z,71.07
2019-05-11T03:52:09.854Z,76.37
2019-05-11T03:54:36.835Z,66.27
2019-05-11T03:57:05.186Z,70.90
2019-05-11T03:59:32.302Z,67.17
2019-05-11T04:01:59.406Z,67.83
2019-05-11T04:04:26.442Z,60.13
2019-05-11T04:06:53.843Z,64.90
2019-05-11T04:09:20.823Z,65.90
2019-05-11T04:11:48.242Z,57.40
2019-05-11T04:14:16.557Z,65.27
2019-05-11T04:16:44.063Z,67.77
2019-05-11T04:19:11.142Z,61.70
2019-05-11T04:21:38.197Z,61.07
2019-05-11T04:24:05.211Z,59.63
2019-05-11T04:26:32.878Z,57.87
2019-05-11T04:28:59.904Z,54.23
2019-05-11T04:31:26.935Z,55.37
2019-05-11T04:33:54.398Z,50.40
2019-05-11T04:36:21.496Z,48.07
2019-05-11T04:38:48.961Z,41.23
2019-05-11T04:41:16.073Z,45.53
2019-05-11T04:43:43.446Z,41.43
2019-05-11T04:46:10.620Z,41.50
2019-05-11T04:48:37.629Z,45.00
2019-05-11T04:51:04.700Z,37.90
2019-05-11T04:53:31.984Z,35.10
2019-05-11T04:55:59.058Z,32.87
2019-05-11T04:58:27.188Z,34.67
2019-05-11T05:00:54.208Z,37.77
2019-05-11T05:03:21.632Z,31.37
2019-05-11T05:05:49.250Z,34.10
2019-05-11T05:08:16.259Z,35.77
2019-05-11T05:10:43.339Z,31.03
2019-05-11T05:13:11.097Z,30.23
2019-05-11T05:15:38.352Z,34.80
2019-05-11T05:18:05.620Z,28.13
2019-05-11T05:20:32.653Z,29.97
2019-05-11T05:22:59.960Z,23.97
2019-05-11T05:25:27.209Z,27.23
2019-05-11T05:27:55.036Z,25.93
2019-05-11T05:30:22.189Z,27.07
2019-05-11T05:32:49.345Z,27.60
2019-05-11T05:35:16.361Z,27.90
2019-05-11T05:37:43.324Z,25.43
2019-05-11T05:40:10.460Z,25.70
2019-05-11T05:42:37.476Z,28.23
2019-05-11T05:45:05.606Z,25.87
2019-05-11T05:47:32.640Z,28.37
2019-05-11T05:49:59.672Z,27.50
2019-05-11T05:52:27.137Z,24.77
2019-05-11T05:54:54.757Z,27.50
2019-05-11T05:57:21.952Z,24.07
2019-05-11T05:59:49.003Z,24.93
2019-05-11T06:02:16.148Z,23.27
2019-05-11T06:04:43.189Z,24.63
2019-05-11T06:07:10.245Z,25.17
2019-05-11T06:09:37.245Z,22.30
2019-05-11T06:12:04.640Z,21.57
2019-05-11T06:14:31.696Z,23.60
2019-05-11T06:16:59.057Z,22.57
2019-05-11T06:19:26.094Z,23.57
2019-05-11T06:21:53.409Z,23.47
2019-05-11T06:24:20.490Z,22.53
2019-05-11T06:26:49.557Z,19.07
2019-05-11T06:29:21.280Z,22.17
2019-05-11T06:31:46.657Z,23.07
2019-05-11T06:34:14.109Z,23.07
2019-05-11T06:36:41.153Z,23.73
2019-05-11T06:39:08.332Z,20.83
2019-05-11T06:41:36.028Z,25.13
2019-05-11T06:44:03.589Z,21.57
2019-05-11T06:46:30.679Z,18.73
2019-05-11T06:48:58.209Z,17.40
2019-05-11T06:51:25.285Z,21.83
2019-05-11T06:53:52.434Z,21.20
2019-05-11T06:56:19.793Z,20.33
2019-05-11T06:58:49.327Z,17.97
2019-05-11T07:01:16.356Z,18.87
2019-05-11T07:03:43.393Z,23.93
2019-05-11T07:06:10.442Z,19.40
2019-05-11T07:08:37.866Z,20.27
2019-05-11T07:11:06.094Z,20.40
2019-05-11T07:13:33.168Z,20.53
2019-05-11T07:16:00.169Z,16.97
2019-05-11T07:18:27.228Z,18.07
2019-05-11T07:20:54.254Z,19.57
2019-05-11T07:23:21.310Z,23.13
2019-05-11T07:25:49.722Z,19.87
2019-05-11T07:28:17.466Z,19.03
2019-05-11T07:30:44.809Z,20.40
2019-05-11T07:33:14.100Z,18.23
2019-05-11T07:35:41.082Z,19.83
2019-05-11T07:38:08.418Z,19.93
2019-05-11T07:40:38.521Z,19.33
2019-05-11T07:43:09.494Z,16.43
2019-05-11T07:45:35.180Z,18.57
2019-05-11T07:48:02.537Z,18.67
2019-05-11T07:50:29.619Z,22.60
2019-05-11T07:52:58.931Z,18.10
2019-05-11T07:55:28.194Z,18.07
2019-05-11T07:57:54.930Z,18.93
2019-05-11T08:00:21.974Z,19.27
2019-05-11T08:02:49.018Z,19.67
2019-05-11T08:05:18.002Z,18.53
2019-05-11T08:07:47.950Z,19.23
2019-05-11T08:10:14.754Z,21.20
2019-05-11T08:12:41.993Z,18.13
2019-05-11T08:15:13.282Z,21.47
2019-05-11T08:17:39.978Z,19.30
2019-05-11T08:20:08.450Z,20.37
2019-05-11T08:22:37.757Z,17.87
2019-05-11T08:25:05.150Z,17.70
2019-05-11T08:27:32.588Z,18.37
2019-05-11T08:29:59.651Z,22.37
2019-05-11T08:32:28.710Z,19.67
2019-05-11T08:34:58.491Z,18.97
2019-05-11T08:37:25.606Z,20.97
2019-05-11T08:39:52.864Z,22.83
2019-05-11T08:42:21.358Z,20.53
2019-05-11T08:44:48.851Z,19.83
2019-05-11T08:47:17.772Z,20.13
2019-05-11T08:49:44.861Z,20.00
2019-05-11T08:52:11.886Z,26.50
2019-05-11T08:54:38.988Z,22.67
2019-05-11T08:57:08.178Z,19.37
2019-05-11T08:59:39.209Z,18.33
2019-05-11T09:02:08.319Z,21.50
2019-05-11T09:04:39.406Z,19.53
2019-05-11T09:07:04.674Z,16.23
2019-05-11T09:09:31.747Z,19.43
2019-05-11T09:11:59.071Z,16.20
2019-05-11T09:14:28.417Z,21.17
2019-05-11T09:16:57.596Z,16.77
2019-05-11T09:19:24.743Z,17.80
2019-05-11T09:21:52.316Z,17.07
2019-05-11T09:24:19.347Z,16.13
2019-05-11T09:26:47.947Z,18.67
2019-05-11T09:29:15.215Z,19.63
2019-05-11T09:31:43.575Z,20.90
2019-05-11T09:34:10.684Z,16.60
2019-05-11T09:36:38.948Z,14.60
2019-05-11T09:39:08.436Z,18.47
2019-05-11T09:41:38.324Z,18.90
2019-05-11T09:44:09.019Z,18.33
2019-05-11T09:46:38.436Z,14.23
2019-05-11T09:49:07.836Z,15.67
2019-05-11T09:51:34.531Z,16.80
2019-05-11T09:54:01.588Z,15.63
2019-05-11T09:56:29.121Z,15.53
2019-05-11T09:58:58.890Z,16.20
2019-05-11T10:01:26.254Z,12.13
2019-05-11T10:03:53.306Z,14.00
2019-05-11T10:06:20.403Z,15.63
2019-05-11T10:08:48.778Z,13.80
2019-05-11T10:11:19.055Z,20.43
2019-05-11T10:13:47.771Z,14.87
2019-05-11T10:16:17.609Z,17.27
2019-05-11T10:18:48.880Z,20.10
2019-05-11T10:21:15.550Z,22.93
2019-05-11T10:23:42.739Z,22.90
2019-05-11T10:26:09.976Z,21.83
2019-05-11T10:28:38.938Z,16.97
2019-05-11T10:31:08.587Z,18.07
2019-05-11T10:33:38.083Z,22.20
2019-05-11T10:36:08.408Z,22.10
2019-05-11T10:38:37.784Z,17.10
2019-05-11T10:41:04.868Z,19.27
2019-05-11T10:43:32.076Z,18.60
2019-05-11T10:45:59.561Z,15.60
2019-05-11T10:48:28.218Z,17.90
2019-05-11T10:50:57.132Z,15.50
2019-05-11T10:53:24.279Z,18.53
2019-05-11T10:55:51.275Z,16.70
2019-05-11T10:58:18.673Z,18.57
2019-05-11T11:00:48.042Z,19.97
2019-05-11T11:03:15.141Z,19.97
2019-05-11T11:05:42.117Z,14.70
2019-05-11T11:08:09.134Z,15.07
2019-05-11T11:10:37.848Z,16.73
2019-05-11T11:13:05.083Z,9.93
2019-05-11T11:15:32.221Z,9.63
2019-05-11T11:17:59.684Z,8.30
2019-05-11T11:20:28.037Z,6.97
2019-05-11T11:23:05.714Z,6.57
2019-05-11T11:25:40.322Z,5.10
2019-05-11T11:28:08.455Z,5.27
2019-05-11T11:30:37.844Z,5.07
2019-05-11T11:33:04.833Z,5.63
2019-05-11T11:35:31.991Z,4.97
2019-05-11T11:38:00.010Z,6.70
2019-05-11T11:40:28.152Z,6.17
2019-05-11T11:42:58.267Z,6.73
2019-05-11T11:45:25.006Z,7.00
2019-05-11T11:47:52.229Z,5.60
2019-05-11T11:50:19.208Z,6.63
2019-05-11T11:52:47.712Z,5.97
2019-05-11T11:55:14.934Z,6.10
2019-05-11T11:57:43.830Z,6.53
2019-05-11T12:00:11.151Z,5.47
2019-05-11T12:02:38.950Z,7.27
2019-05-11T12:05:08.617Z,8.53
2019-05-11T12:07:35.286Z,9.73
2019-05-11T12:10:02.443Z,6.93
2019-05-11T12:12:29.893Z,7.40
2019-05-11T12:14:58.439Z,6.33
2019-05-11T12:17:25.838Z,7.50
2019-05-11T12:19:52.907Z,9.33
2019-05-11T12:22:19.929Z,7.27
2019-05-11T12:24:48.191Z,6.97
2019-05-11T12:27:18.105Z,10.90
2019-05-11T12:29:45.121Z,13.30
2019-05-11T12:32:18.597Z,6.33
2019-05-11T12:34:48.057Z,7.07
2019-05-11T12:37:14.669Z,9.60
2019-05-11T12:39:42.886Z,9.13
2019-05-11T12:42:09.940Z,12.10
2019-05-11T12:44:38.725Z,6.53
2019-05-11T12:47:19.160Z,5.20
2019-05-11T12:49:35.076Z,6.63
2019-05-11T12:52:02.123Z,6.50
2019-05-11T12:54:29.554Z,5.70
2019-05-11T12:56:57.944Z,9.03
2019-05-11T12:59:27.600Z,6.70
2019-05-11T13:01:54.462Z,7.23
2019-05-11T13:04:21.665Z,9.00
2019-05-11T13:06:49.119Z,6.50
2019-05-11T13:09:18.350Z,8.07
2019-05-11T13:11:48.024Z,8.63
2019-05-11T13:14:15.738Z,9.07
2019-05-11T13:16:42.826Z,9.33
2019-05-11T13:19:10.294Z,5.20
2019-05-11T13:21:38.346Z,5.10
2019-05-11T13:24:08.159Z,8.10
2019-05-11T13:26:34.664Z,7.27
2019-05-11T13:29:01.785Z,6.03
2019-05-11T13:31:28.986Z,9.30
2019-05-11T13:33:58.364Z,8.60
2019-05-11T13:36:24.946Z,7.57
2019-05-11T13:38:51.999Z,7.33
2019-05-11T13:41:20.261Z,6.17
2019-05-11T13:43:48.965Z,7.97
2019-05-11T13:46:18.024Z,6.20
2019-05-11T13:48:47.535Z,6.33
2019-05-11T13:51:15.499Z,10.53
2019-05-11T13:53:42.614Z,5.53
2019-05-11T13:56:09.671Z,6.47
2019-05-11T13:58:38.129Z,7.63
2019-05-11T14:01:07.869Z,6.73
2019-05-11T14:03:34.263Z,6.17
2019-05-11T14:06:01.274Z,6.70
2019-05-11T14:08:30.367Z,7.83
2019-05-11T14:10:59.159Z,5.70
2019-05-11T14:13:28.030Z,5.67
2019-05-11T14:15:55.150Z,6.30
2019-05-11T14:18:22.535Z,7.30
2019-05-11T14:20:49.532Z,8.43
2019-05-11T14:23:18.263Z,8.77
2019-05-11T14:25:45.564Z,6.83
2019-05-11T14:28:12.608Z,6.63
2019-05-11T14:30:39.702Z,5.60
2019-05-11T14:33:08.695Z,7.27
2019-05-11T14:35:35.751Z,5.47
2019-05-11T14:38:03.162Z,7.17
2019-05-11T14:40:32.514Z,6.57
2019-05-11T14:42:59.887Z,8.83
2019-05-11T14:45:28.814Z,9.50
2019-05-11T14:47:58.086Z,5.17
2019-05-11T14:50:25.136Z,5.67
2019-05-11T14:52:52.591Z,6.67
2019-05-11T14:55:20.288Z,10.47
2019-05-11T14:57:48.622Z,6.50
2019-05-11T15:00:18.501Z,7.77
2019-05-11T15:02:48.602Z,7.63
2019-05-11T15:05:19.506Z,8.67
2019-05-11T15:07:47.977Z,5.70
2019-05-11T15:10:18.524Z,6.13
2019-05-11T15:12:45.063Z,9.77
2019-05-11T15:15:12.903Z,7.53
2019-05-11T15:17:39.907Z,6.37
2019-05-11T15:20:08.298Z,6.60
2019-05-11T15:22:37.358Z,7.77
2019-05-11T15:25:08.036Z,8.60
2019-05-11T15:27:35.347Z,6.87
2019-05-11T15:30:02.470Z,9.00
2019-05-11T15:32:29.508Z,5.50
2019-05-11T15:34:57.816Z,5.23
2019-05-11T15:37:24.995Z,6.23
2019-05-11T15:39:55.298Z,7.93
2019-05-11T15:42:22.439Z,9.60
2019-05-11T15:44:49.905Z,10.07
2019-05-11T15:47:16.945Z,6.80
2019-05-11T15:49:43.968Z,6.73
2019-05-11T15:52:11.453Z,5.13
2019-05-11T15:54:38.640Z,5.77
2019-05-11T15:57:05.776Z,6.90
2019-05-11T15:59:32.804Z,9.23
2019-05-11T16:02:01.222Z,5.57
2019-05-11T16:04:28.247Z,5.83
2019-05-11T16:06:57.593Z,4.67
2019-05-11T16:09:24.663Z,4.73
2019-05-11T16:11:51.676Z,5.20
2019-05-11T16:14:18.738Z,4.77
2019-05-11T16:16:47.926Z,3.80
2019-05-11T16:19:15.444Z,4.20
2019-05-11T16:21:43.132Z,4.53
2019-05-11T16:24:10.558Z,6.13
2019-05-11T16:26:37.548Z,11.13
2019-05-11T16:29:11.450Z,5.97
2019-05-11T16:31:38.016Z,4.27
2019-05-11T16:34:05.152Z,7.30
2019-05-11T16:36:32.172Z,4.43
2019-05-11T16:38:59.356Z,4.70
2019-05-11T16:41:29.142Z,5.77
2019-05-11T16:43:58.368Z,3.83
2019-05-11T16:46:30.841Z,3.00
2019-05-11T16:48:58.712Z,6.03
2019-05-11T16:51:28.224Z,4.53
2019-05-11T16:53:54.881Z,6.03
2019-05-11T16:56:23.849Z,2.93
2019-05-11T16:58:54.264Z,5.90
2019-05-11T17:01:21.044Z,3.17
2019-05-11T17:03:48.316Z,4.73
2019-05-11T17:06:16.060Z,7.67
2019-05-11T17:08:43.088Z,7.93
2019-05-11T17:11:10.310Z,4.20
2019-05-11T17:13:38.131Z,1.80
2019-05-11T17:16:05.208Z,2.80
2019-05-11T17:18:32.272Z,5.63
2019-05-11T17:20:59.464Z,2.50
2019-05-11T17:23:30.894Z,2.40
2019-05-11T17:25:57.867Z,2.60
2019-05-11T17:28:24.965Z,6.57
2019-05-11T17:30:55.238Z,2.33
2019-05-11T17:33:22.645Z,4.50
2019-05-11T17:35:52.138Z,1.73
2019-05-11T17:38:19.135Z,1.77
2019-05-11T17:40:48.267Z,1.50
2019-05-11T17:43:17.971Z,3.43
2019-05-11T17:45:44.744Z,2.57
2019-05-11T17:48:12.901Z,1.30
2019-05-11T17:50:40.041Z,1.47
2019-05-11T17:53:09.441Z,1.50
2019-05-11T17:55:38.456Z,3.70
2019-05-11T17:58:05.984Z,2.73
2019-05-11T18:00:33.019Z,2.83
2019-05-11T18:03:00.060Z,3.20
2019-05-11T18:05:27.073Z,1.57
2019-05-11T18:07:54.596Z,5.00
2019-05-11T18:10:21.617Z,1.77
2019-05-11T18:12:48.980Z,3.43
2019-05-11T18:15:18.578Z,1.73
2019-05-11T18:17:48.149Z,2.60
2019-05-11T18:20:18.654Z,2.00
2019-05-11T18:22:45.321Z,2.47
2019-05-11T18:25:14.114Z,1.90
2019-05-11T18:27:41.562Z,2.40
2019-05-11T18:30:10.281Z,1.67
2019-05-11T18:32:39.607Z,6.50
2019-05-11T18:35:08.386Z,2.07
2019-05-11T18:37:38.695Z,1.57
2019-05-11T18:40:06.107Z,4.10
2019-05-11T18:42:33.142Z,2.03
2019-05-11T18:45:00.322Z,1.43
2019-05-11T18:47:29.806Z,2.00
2019-05-11T18:49:58.791Z,2.13
2019-05-11T18:52:25.857Z,5.13
2019-05-11T18:54:52.853Z,3.93
2019-05-11T18:57:20.211Z,2.80
2019-05-11T18:59:48.406Z,2.57
2019-05-11T19:02:15.586Z,3.40
2019-05-11T19:04:44.532Z,2.53
2019-05-11T19:07:16.828Z,4.40
2019-05-11T19:09:40.886Z,1.47
2019-05-11T19:12:10.718Z,4.73
2019-05-11T19:14:38.562Z,4.77
2019-05-11T19:17:07.722Z,3.47
2019-05-11T19:19:35.317Z,1.50
2019-05-11T19:22:04.154Z,2.53
2019-05-11T19:24:31.181Z,1.73
2019-05-11T19:26:58.816Z,1.80
2019-05-11T19:29:28.311Z,1.60
2019-05-11T19:31:57.933Z,3.23
2019-05-11T19:34:24.805Z,3.03
2019-05-11T19:36:51.925Z,1.97
2019-05-11T19:39:19.478Z,3.70
2019-05-11T19:41:47.189Z,2.07
2019-05-11T19:44:14.292Z,1.70
2019-05-11T19:46:41.337Z,4.40
2019-05-11T19:49:08.760Z,2.43
2019-05-11T19:51:42.140Z,2.03
2019-05-11T19:54:08.563Z,1.70
2019-05-11T19:56:37.801Z,2.27
2019-05-11T19:59:04.753Z,2.07
2019-05-11T20:01:31.745Z,3.67
2019-05-11T20:03:58.790Z,1.60
2019-05-11T20:06:28.048Z,2.17
2019-05-11T20:08:55.336Z,4.50
2019-05-11T20:11:22.485Z,1.90
2019-05-11T20:13:49.497Z,4.27
2019-05-11T20:16:18.894Z,2.30
2019-05-11T20:18:46.065Z,1.70
2019-05-11T20:21:18.830Z,1.80
2019-05-11T20:23:42.042Z,1.83
2019-05-11T20:26:09.150Z,6.13
2019-05-11T20:28:37.817Z,1.73
2019-05-11T20:31:07.871Z,1.60
2019-05-11T20:33:35.409Z,4.43
2019-05-11T20:36:02.992Z,1.80
2019-05-11T20:38:30.043Z,1.37
2019-05-11T20:40:57.734Z,1.33
2019-05-11T20:43:25.007Z,2.37
2019-05-11T20:45:52.027Z,5.37
2019-05-11T20:48:19.043Z,5.63
2019-05-11T20:50:48.336Z,1.83
2019-05-11T20:53:17.994Z,3.13
2019-05-11T20:55:44.912Z,3.33
2019-05-11T20:58:15.035Z,4.40
2019-05-11T21:00:42.812Z,3.63
2019-05-11T21:03:09.819Z,2.17
2019-05-11T21:05:37.755Z,1.67
2019-05-11T21:08:08.318Z,4.83
2019-05-11T21:10:35.412Z,1.40
2019-05-11T21:13:03.097Z,3.73
2019-05-11T21:15:30.507Z,3.83
2019-05-11T21:17:58.632Z,2.23
2019-05-11T21:20:25.924Z,1.50
2019-05-11T21:22:52.901Z,5.07
2019-05-11T21:25:20.351Z,3.37
2019-05-11T21:27:48.610Z,4.70
2019-05-11T21:30:18.293Z,3.67
2019-05-11T21:32:45.071Z,3.20
2019-05-11T21:35:12.763Z,1.90
2019-05-11T21:37:39.744Z,7.03
2019-05-11T21:40:09.146Z,1.57
2019-05-11T21:42:39.106Z,4.67
2019-05-11T21:45:09.235Z,4.30
2019-05-11T21:47:38.345Z,5.43
2019-05-11T21:50:05.050Z,3.23
2019-05-11T21:52:32.564Z,3.77
2019-05-11T21:55:02.835Z,4.80
2019-05-11T21:57:30.509Z,1.67
2019-05-11T22:00:00.576Z,6.03
2019-05-11T22:02:28.728Z,3.87
2019-05-11T22:04:58.512Z,4.27
2019-05-11T22:07:27.833Z,2.00
2019-05-11T22:09:54.836Z,1.87
2019-05-11T22:12:22.300Z,3.07
2019-05-11T22:14:49.316Z,2.33
2019-05-11T22:17:18.217Z,4.13
2019-05-11T22:19:47.391Z,1.77
2019-05-11T22:22:22.515Z,4.17
2019-05-11T22:24:43.904Z,5.93
2019-05-11T22:27:10.908Z,2.10
2019-05-11T22:29:38.004Z,2.03
2019-05-11T22:32:05.765Z,3.83
2019-05-11T22:34:32.816Z,4.40
2019-05-11T22:36:59.808Z,4.93
2019-05-11T22:39:26.815Z,2.00
2019-05-11T22:41:54.364Z,5.30
2019-05-11T22:44:21.520Z,2.83
2019-05-11T22:46:48.704Z,3.87
2019-05-11T22:49:17.769Z,2.23
2019-05-11T22:51:45.105Z,3.33
2019-05-11T22:54:12.153Z,4.80
2019-05-11T22:56:39.337Z,2.40
2019-05-11T22:59:08.267Z,2.33
2019-05-11T23:01:37.893Z,5.37
2019-05-11T23:04:06.197Z,1.80
2019-05-11T23:06:33.208Z,3.50
2019-05-11T23:09:00.205Z,3.77
2019-05-11T23:11:28.511Z,2.13
2019-05-11T23:13:55.953Z,5.47
2019-05-11T23:16:22.997Z,1.93
2019-05-11T23:18:50.000Z,3.40
2019-05-11T23:21:17.105Z,4.30
2019-05-11T23:23:44.243Z,3.50
2019-05-11T23:26:11.904Z,4.87
2019-05-11T23:28:38.913Z,2.63
2019-05-11T23:31:05.933Z,2.83
2019-05-11T23:33:32.970Z,3.53
2019-05-11T23:36:00.397Z,2.43
2019-05-11T23:38:28.204Z,2.73
2019-05-11T23:40:55.417Z,6.53
2019-05-11T23:43:22.477Z,2.93
2019-05-11T23:45:49.619Z,4.60
2019-05-11T23:48:17.069Z,3.07
2019-05-11T23:50:46.169Z,3.07
2019-05-11T23:53:13.727Z,2.27
2019-05-11T23:55:40.786Z,3.93
2019-05-11T23:58:08.715Z,3.50
